createdAt,value
2018-11-29T00:01:13.035Z,100809.26
2018-11-29T00:05:21.931Z,100801.32
2018-11-29T00:09:39.725Z,100796.72
2018-11-29T00:13:47.413Z,100796.81
2018-11-29T00:17:55.118Z,100794.48
2018-11-29T00:22:02.824Z,100794.00
2018-11-29T00:26:10.603Z,100801.38
2018-11-29T00:30:27.447Z,100798.77
2018-11-29T00:34:37.751Z,100793.89
2018-11-29T00:38:45.483Z,100785.27
2018-11-29T00:42:53.244Z,100791.21
2018-11-29T00:47:01.020Z,100786.25
2018-11-29T00:51:09.050Z,100786.50
2018-11-29T00:55:21.858Z,100775.33
2018-11-29T00:59:30.441Z,100775.13
2018-11-29T01:03:39.011Z,100777.36
2018-11-29T01:07:47.312Z,100782.59
2018-11-29T01:11:55.850Z,100782.70
2018-11-29T01:16:03.718Z,100789.49
2018-11-29T01:20:19.026Z,100794.66
2018-11-29T01:24:27.478Z,100781.86
2018-11-29T01:28:35.388Z,100785.59
2018-11-29T01:32:43.496Z,100778.02
2018-11-29T01:36:51.357Z,100761.36
2018-11-29T01:40:59.083Z,100754.06
2018-11-29T01:45:07.111Z,100749.76
2018-11-29T01:49:15.001Z,100747.73
2018-11-29T01:53:22.908Z,100752.30
2018-11-29T01:57:30.684Z,100757.46
2018-11-29T02:01:38.432Z,100773.04
2018-11-29T02:05:46.048Z,100785.91
2018-11-29T02:10:13.091Z,100779.45
2018-11-29T02:14:20.930Z,100765.62
2018-11-29T02:18:28.590Z,100761.50
2018-11-29T02:22:36.278Z,100758.17
2018-11-29T02:26:43.906Z,100757.12
2018-11-29T02:30:51.499Z,100755.81
2018-11-29T02:35:01.617Z,100747.72
2018-11-29T02:39:10.958Z,100740.69
2018-11-29T02:43:18.627Z,100745.05
2018-11-29T02:47:27.232Z,100749.70
2018-11-29T02:51:34.945Z,100752.42
2018-11-29T02:55:42.680Z,100743.28
2018-11-29T02:59:50.359Z,100731.87
2018-11-29T03:03:58.418Z,100732.13
2018-11-29T03:08:06.432Z,100731.16
2018-11-29T03:12:14.127Z,100729.00
2018-11-29T03:16:21.924Z,100727.36
2018-11-29T03:20:29.993Z,100716.95
2018-11-29T03:24:37.797Z,100700.66
2018-11-29T03:28:45.671Z,100691.96
2018-11-29T03:32:54.325Z,100694.86
2018-11-29T03:37:01.852Z,100688.86
2018-11-29T03:41:10.081Z,100675.32
2018-11-29T03:45:18.534Z,100661.48
2018-11-29T03:49:26.571Z,100643.73
2018-11-29T03:53:34.379Z,100646.83
2018-11-29T03:57:43.159Z,100646.07
2018-11-29T04:01:57.637Z,100655.11
2018-11-29T04:06:07.303Z,100656.22
2018-11-29T04:10:17.039Z,100650.28
2018-11-29T04:14:25.440Z,100663.05
2018-11-29T04:18:33.083Z,100672.89
2018-11-29T04:22:40.674Z,100671.78
2018-11-29T04:26:48.143Z,100662.04
2018-11-29T04:30:55.912Z,100658.64
2018-11-29T04:35:03.699Z,100664.42
2018-11-29T04:39:11.293Z,100673.27
2018-11-29T04:43:19.231Z,100673.67
2018-11-29T04:47:32.714Z,100678.49
2018-11-29T04:51:43.465Z,100677.41
2018-11-29T04:55:51.049Z,100666.22
2018-11-29T04:59:58.760Z,100658.50
2018-11-29T05:04:06.959Z,100646.27
2018-11-29T05:08:14.864Z,100645.91
2018-11-29T05:12:22.662Z,100651.58
2018-11-29T05:16:30.631Z,100650.87
2018-11-29T05:20:38.299Z,100644.95
2018-11-29T05:24:46.164Z,100637.64
2018-11-29T05:28:54.363Z,100637.75
2018-11-29T05:33:02.205Z,100633.09
2018-11-29T05:37:10.229Z,100621.29
2018-11-29T05:41:18.056Z,100627.98
2018-11-29T05:45:26.430Z,100605.06
2018-11-29T05:49:34.444Z,100604.72
2018-11-29T05:53:42.319Z,100603.36
2018-11-29T05:57:49.832Z,100597.16
2018-11-29T06:01:58.123Z,100601.97
2018-11-29T06:06:05.756Z,100605.59
2018-11-29T06:10:14.250Z,100617.00
2018-11-29T06:14:22.744Z,100617.52
2018-11-29T06:18:30.833Z,100606.84
2018-11-29T06:22:39.606Z,100604.31
2018-11-29T06:26:47.287Z,100606.95
2018-11-29T06:30:55.929Z,100598.05
2018-11-29T06:35:06.149Z,100599.19
2018-11-29T06:39:14.069Z,100597.35
2018-11-29T06:43:22.005Z,100597.43
2018-11-29T06:47:30.207Z,100610.16
2018-11-29T06:51:38.126Z,100595.67
2018-11-29T06:55:46.665Z,100602.58
2018-11-29T06:59:54.820Z,100596.58
2018-11-29T07:04:03.708Z,100590.02
2018-11-29T07:08:11.698Z,100583.67
2018-11-29T07:12:20.099Z,100585.17
2018-11-29T07:16:27.708Z,100574.17
2018-11-29T07:20:36.094Z,100573.91
2018-11-29T07:24:43.778Z,100570.53
2018-11-29T07:28:51.682Z,100580.73
2018-11-29T07:32:59.659Z,100582.89
2018-11-29T07:37:07.404Z,100580.10
2018-11-29T07:41:14.844Z,100575.33
2018-11-29T07:45:23.539Z,100565.41
2018-11-29T07:49:33.792Z,100573.15
2018-11-29T07:53:41.218Z,100583.24
2018-11-29T07:57:50.331Z,100580.20
2018-11-29T08:01:57.826Z,100576.98
2018-11-29T08:06:05.403Z,100576.44
2018-11-29T08:10:17.329Z,100580.44
2018-11-29T08:14:24.904Z,100575.98
2018-11-29T08:18:33.248Z,100583.27
2018-11-29T08:22:40.829Z,100586.13
2018-11-29T08:26:48.241Z,100584.89
2018-11-29T08:30:55.643Z,100579.14
2018-11-29T08:35:03.541Z,100567.22
2018-11-29T08:39:14.434Z,100570.78
2018-11-29T08:43:23.307Z,100563.83
2018-11-29T08:47:33.556Z,100558.94
2018-11-29T08:51:41.457Z,100554.61
2018-11-29T08:55:49.067Z,100551.28
2018-11-29T08:59:56.955Z,100559.71
2018-11-29T09:04:04.507Z,100546.13
2018-11-29T09:08:12.196Z,100548.51
2018-11-29T09:12:19.787Z,100552.14
2018-11-29T09:16:27.601Z,100545.89
2018-11-29T09:20:38.668Z,100544.92
2018-11-29T09:24:46.242Z,100552.55
2018-11-29T09:28:53.950Z,100551.03
2018-11-29T09:33:01.477Z,100545.04
2018-11-29T09:37:09.374Z,100547.59
2018-11-29T09:41:17.225Z,100542.56
2018-11-29T09:45:26.143Z,100530.72
2018-11-29T09:49:33.858Z,100528.42
2018-11-29T09:53:43.339Z,100531.45
2018-11-29T09:57:51.698Z,100530.14
2018-11-29T10:01:59.439Z,100531.99
2018-11-29T10:06:07.091Z,100522.52
2018-11-29T10:10:15.104Z,100530.98
2018-11-29T10:14:22.750Z,100513.27
2018-11-29T10:18:31.117Z,100506.13
2018-11-29T10:22:40.521Z,100508.60
2018-11-29T10:26:48.347Z,100496.50
2018-11-29T10:31:03.849Z,100502.73
2018-11-29T10:35:12.658Z,100488.43
2018-11-29T10:39:20.731Z,100488.94
2018-11-29T10:43:28.342Z,100485.58
2018-11-29T10:47:36.863Z,100482.06
2018-11-29T10:51:44.393Z,100469.84
2018-11-29T10:55:52.093Z,100469.80
2018-11-29T11:00:00.010Z,100468.47
2018-11-29T11:04:08.088Z,100464.63
2018-11-29T11:08:16.068Z,100468.88
2018-11-29T11:12:23.768Z,100456.13
2018-11-29T11:16:31.344Z,100457.68
2018-11-29T11:20:39.231Z,100453.75
2018-11-29T11:24:46.871Z,100452.80
2018-11-29T11:28:54.607Z,100452.42
2018-11-29T11:33:02.587Z,100452.30
2018-11-29T11:37:10.353Z,100431.52
2018-11-29T11:41:18.118Z,100442.64
2018-11-29T11:45:26.030Z,100432.95
2018-11-29T11:49:34.117Z,100427.81
2018-11-29T11:53:41.982Z,100421.19
2018-11-29T11:57:50.570Z,100417.78
2018-11-29T12:01:58.527Z,100418.83
2018-11-29T12:06:06.178Z,100411.55
2018-11-29T12:10:15.758Z,100404.45
2018-11-29T12:14:26.879Z,100396.37
2018-11-29T12:18:35.554Z,100393.27
2018-11-29T12:22:43.365Z,100391.28
2018-11-29T12:26:51.494Z,100375.35
2018-11-29T12:31:06.750Z,100366.94
2018-11-29T12:35:14.424Z,100367.27
2018-11-29T12:39:26.734Z,100355.54
2018-11-29T12:43:37.321Z,100357.22
2018-11-29T12:47:47.465Z,100351.12
2018-11-29T12:51:55.872Z,100338.42
2018-11-29T12:56:06.521Z,100331.57
2018-11-29T13:00:19.392Z,100310.80
2018-11-29T13:04:27.389Z,100311.16
2018-11-29T13:08:35.193Z,100299.37
2018-11-29T13:12:43.137Z,100297.34
2018-11-29T13:16:54.311Z,100298.19
2018-11-29T13:21:07.928Z,100271.13
2018-11-29T13:25:20.383Z,100280.30
2018-11-29T13:29:28.655Z,100286.00
2018-11-29T13:33:41.866Z,100272.23
2018-11-29T13:38:18.185Z,100259.89
2018-11-29T13:42:26.097Z,100234.30
2018-11-29T13:46:34.248Z,100244.06
2018-11-29T13:50:42.340Z,100237.78
2018-11-29T13:54:50.910Z,100269.23
2018-11-29T13:58:58.370Z,100247.34
2018-11-29T14:03:15.639Z,100266.89
2018-11-29T14:07:27.090Z,100255.41
2018-11-29T14:11:38.024Z,100276.46
2018-11-29T14:15:45.726Z,100269.61
2018-11-29T14:19:53.854Z,100278.23
2018-11-29T14:24:02.704Z,100276.72
2018-11-29T14:28:11.457Z,100264.66
2018-11-29T14:32:19.009Z,100256.41
2018-11-29T14:36:28.467Z,100237.31
2018-11-29T14:40:38.812Z,100203.54
2018-11-29T14:44:47.289Z,100139.81
2018-11-29T14:48:56.074Z,100091.52
2018-11-29T14:53:03.669Z,100151.48
2018-11-29T14:57:20.736Z,100202.41
2018-11-29T15:01:29.044Z,100166.17
2018-11-29T15:05:38.465Z,100173.95
2018-11-29T15:09:46.368Z,100183.86
2018-11-29T15:13:54.119Z,100163.44
2018-11-29T15:18:01.953Z,100205.66
2018-11-29T15:22:10.925Z,100200.72
2018-11-29T15:26:19.608Z,100213.83
2018-11-29T15:30:27.812Z,100236.77
2018-11-29T15:34:36.824Z,100242.00
2018-11-29T15:38:45.099Z,100235.32
2018-11-29T15:42:54.051Z,100211.61
2018-11-29T15:47:01.537Z,100212.44
2018-11-29T15:51:10.583Z,100091.75
2018-11-29T15:55:30.128Z,100125.05
2018-11-29T15:59:41.159Z,100113.09
2018-11-29T16:03:52.515Z,100111.80
2018-11-29T16:08:01.246Z,100109.72
2018-11-29T16:12:12.446Z,100130.77
2018-11-29T16:16:19.988Z,100126.38
2018-11-29T16:20:32.876Z,100117.78
2018-11-29T16:24:44.415Z,100111.41
2018-11-29T16:28:56.229Z,100111.59
2018-11-29T16:33:35.317Z,100106.99
2018-11-29T16:37:43.993Z,100096.33
2018-11-29T16:41:55.584Z,100093.37
2018-11-29T16:46:03.852Z,100089.44
2018-11-29T16:50:17.263Z,100078.28
2018-11-29T16:54:25.123Z,100069.78
2018-11-29T16:58:33.482Z,100081.52
2018-11-29T17:02:41.033Z,100085.33
2018-11-29T17:10:56.734Z,100078.06
2018-11-29T17:15:04.346Z,100074.28
2018-11-29T17:19:11.936Z,100077.08
2018-11-29T17:23:25.995Z,100084.02
2018-11-29T17:27:33.832Z,100090.19
2018-11-29T17:31:43.943Z,100088.88
2018-11-29T17:35:51.735Z,100092.35
2018-11-29T17:40:04.071Z,100089.91
2018-11-29T17:44:12.019Z,100080.45
2018-11-29T17:48:19.940Z,100078.11
2018-11-29T17:52:28.085Z,100079.45
2018-11-29T17:56:35.812Z,100079.56
2018-11-29T18:00:50.590Z,100084.20
2018-11-29T18:04:59.185Z,100068.64
2018-11-29T18:09:12.197Z,100058.64
2018-11-29T18:13:32.010Z,100072.08
2018-11-29T18:17:44.773Z,100085.80
2018-11-29T18:21:59.760Z,100084.55
2018-11-29T18:26:08.264Z,100087.78
2018-11-29T18:30:21.125Z,100091.79
2018-11-29T18:34:29.277Z,100089.06
2018-11-29T18:38:37.115Z,100089.38
2018-11-29T18:42:49.140Z,100095.76
2018-11-29T18:47:02.296Z,100102.81
2018-11-29T18:51:10.561Z,100106.78
2018-11-29T18:55:18.730Z,100100.83
2018-11-29T18:59:26.649Z,100088.84
2018-11-29T19:03:34.651Z,100083.73
2018-11-29T19:07:42.914Z,100090.75
2018-11-29T19:11:51.282Z,100075.41
2018-11-29T19:15:59.008Z,100080.27
2018-11-29T19:20:09.269Z,100077.08
2018-11-29T19:24:26.049Z,100078.45
2018-11-29T19:28:37.186Z,100076.82
2018-11-29T19:32:45.303Z,100089.70
2018-11-29T19:37:00.998Z,100091.93
2018-11-29T19:41:11.841Z,100101.20
2018-11-29T19:45:19.951Z,100096.33
2018-11-29T19:49:27.733Z,100095.86
2018-11-29T19:53:35.999Z,100103.55
2018-11-29T19:57:43.933Z,100107.78
2018-11-29T20:01:58.755Z,100101.59
2018-11-29T20:06:07.218Z,100105.60
2018-11-29T20:10:27.086Z,100098.32
2018-11-29T20:14:34.078Z,100098.51
2018-11-29T20:18:43.405Z,100083.80
2018-11-29T20:22:51.448Z,100094.03
2018-11-29T20:26:59.139Z,100093.47
2018-11-29T20:31:07.623Z,100093.30
2018-11-29T20:35:20.226Z,100097.61
2018-11-29T20:39:28.221Z,100097.62
2018-11-29T20:43:36.136Z,100102.66
2018-11-29T20:47:44.364Z,100096.59
2018-11-29T20:51:52.005Z,100098.94
2018-11-29T20:55:59.561Z,100097.80
2018-11-29T21:00:12.020Z,100095.18
2018-11-29T21:04:20.116Z,100105.95
2018-11-29T21:08:28.001Z,100101.92
2018-11-29T21:12:36.540Z,100105.86
2018-11-29T21:16:45.803Z,100098.01
2018-11-29T21:20:53.257Z,100093.78
2018-11-29T21:25:00.715Z,100094.08
2018-11-29T21:29:09.355Z,100091.17
2018-11-29T21:33:17.491Z,100087.98
2018-11-29T21:37:29.784Z,100087.53
2018-11-29T21:41:38.651Z,100088.30
2018-11-29T21:45:48.639Z,100080.80
2018-11-29T21:49:56.665Z,100066.86
2018-11-29T21:54:08.239Z,100062.64
2018-11-29T21:58:22.291Z,100061.34
2018-11-29T22:02:35.783Z,100046.39
2018-11-29T22:06:46.061Z,100053.69
2018-11-29T22:11:03.870Z,100054.23
2018-11-29T22:15:13.929Z,100050.77
2018-11-29T22:19:24.339Z,100036.48
2018-11-29T22:23:38.718Z,100043.67
2018-11-29T22:27:49.440Z,100060.23
2018-11-29T22:31:57.956Z,100042.83
2018-11-29T22:36:07.927Z,100044.78
2018-11-29T22:40:24.321Z,100038.60
2018-11-29T22:44:34.003Z,100042.16
2018-11-29T22:48:53.191Z,100038.89
2018-11-29T22:53:04.380Z,100023.86
2018-11-29T22:57:11.781Z,100014.95
2018-11-29T23:01:28.804Z,100018.82
2018-11-29T23:05:36.475Z,100021.89
2018-11-29T23:09:43.936Z,100027.58
2018-11-29T23:13:51.403Z,100028.33
2018-11-29T23:17:59.219Z,100030.30
2018-11-29T23:22:06.946Z,100031.14
2018-11-29T23:26:14.578Z,100038.80
2018-11-29T23:30:22.378Z,100053.08
2018-11-29T23:34:29.844Z,100041.70
2018-11-29T23:38:38.343Z,100043.48
2018-11-29T23:42:46.207Z,100042.82
2018-11-29T23:46:53.744Z,100042.91
2018-11-29T23:51:01.260Z,100049.06
2018-11-29T23:55:11.318Z,100039.55
2018-11-29T23:59:19.018Z,100050.12
